Portada
METAR-TAF:

METAR-TAF

Aeropuertos :

Algona, Iowa, Estados Unidos

latitud: 43-05N, longitud: 094-16W, altitud: 372 m

Observación

El informe se hizo hace 33 minutos, a las 07:35 UTC
Viento 6 kt del este-sureste
Temperatura 13°C
Humedad 72%
Presión 1024 hPa
Visibilidad: 16.1 km
Cielo despejado

METAR: KAXA 310735Z AUTO 11006KT 10SM CLR 13/08 A3025 RMK A01

Hora: 03:08 (08:08 UTC)


TAF: falta

Observaciones y pronósticos meteorológicos de más de 4000 aeropuertos (mensajes METAR y TAF).

Los puntos amarillos y rojos representan las estaciones disponibles.

Ponga el ratón en el punto deseado para ver el nombre de la estación.

Haga clic para ver las observaciones y los pronósticos meteorológicos.

Para cambiar el mapa : haga clic en los botones verdes con una cruz de color negro para hacer un zoom, en el botón verde con un guión para alejar o en las flechas verdes para mapas adyacentes.


METAR-TAF: